createdAt,value
2023-02-19T00:00:32.870Z,5.06
2023-02-19T00:01:41.178Z,5.12
2023-02-19T00:02:47.015Z,5.20
2023-02-19T00:03:55.813Z,5.12
2023-02-19T00:05:00.512Z,5.10
2023-02-19T00:06:07.420Z,5.18
2023-02-19T00:07:11.549Z,5.22
2023-02-19T00:08:15.990Z,5.08
2023-02-19T00:09:20.544Z,5.14
2023-02-19T00:10:25.527Z,5.17
2023-02-19T00:11:30.995Z,5.18
2023-02-19T00:12:34.835Z,5.17
2023-02-19T00:13:40.649Z,5.04
2023-02-19T00:14:43.810Z,5.04
2023-02-19T00:15:48.087Z,5.07
2023-02-19T00:16:51.778Z,5.03
2023-02-19T00:17:55.385Z,5.01
2023-02-19T00:18:58.976Z,5.06
2023-02-19T00:20:02.595Z,5.10
2023-02-19T00:21:05.064Z,4.99
2023-02-19T00:22:08.862Z,4.98
2023-02-19T00:23:11.006Z,4.95
2023-02-19T00:24:15.247Z,4.92
2023-02-19T00:25:18.860Z,4.93
2023-02-19T00:26:21.871Z,4.80
2023-02-19T00:27:25.109Z,4.79
2023-02-19T00:28:29.078Z,4.84
2023-02-19T00:29:33.506Z,4.86
2023-02-19T00:30:36.489Z,4.76
2023-02-19T00:31:41.774Z,4.76
2023-02-19T00:32:49.865Z,4.74
2023-02-19T00:33:54.058Z,4.75
2023-02-19T00:34:59.062Z,4.67
2023-02-19T00:36:03.206Z,4.81
2023-02-19T00:37:06.745Z,4.87
2023-02-19T00:38:10.104Z,4.94
2023-02-19T00:39:16.227Z,4.90
2023-02-19T00:40:22.802Z,4.78
2023-02-19T00:41:26.696Z,4.75
2023-02-19T00:42:30.502Z,4.87
2023-02-19T00:43:33.620Z,4.87
2023-02-19T00:44:35.951Z,4.87
2023-02-19T00:45:40.176Z,4.80
2023-02-19T00:46:45.051Z,4.85
2023-02-19T00:47:48.662Z,4.88
2023-02-19T00:48:52.167Z,4.82
2023-02-19T00:49:55.771Z,4.72
2023-02-19T00:51:00.006Z,4.70
2023-02-19T00:52:04.093Z,4.77
2023-02-19T00:53:06.378Z,4.69
2023-02-19T00:54:11.422Z,4.72
2023-02-19T00:55:14.865Z,4.76
2023-02-19T00:56:20.040Z,4.57
2023-02-19T00:57:25.673Z,4.71
2023-02-19T00:58:32.361Z,4.74
2023-02-19T00:59:37.331Z,4.81
2023-02-19T01:00:44.570Z,4.81
2023-02-19T01:01:46.998Z,4.73
2023-02-19T01:02:57.258Z,4.75
2023-02-19T01:04:02.648Z,4.65
2023-02-19T01:05:08.098Z,4.57
2023-02-19T01:06:12.574Z,4.60
2023-02-19T01:07:16.802Z,4.55
2023-02-19T01:08:21.139Z,4.53
2023-02-19T01:09:26.002Z,4.48
2023-02-19T01:10:29.272Z,4.49
2023-02-19T01:11:32.082Z,4.45
2023-02-19T01:12:35.369Z,4.43
2023-02-19T01:13:40.269Z,4.40
2023-02-19T01:14:44.351Z,4.41
2023-02-19T01:15:48.814Z,4.42
2023-02-19T01:16:52.207Z,4.47
2023-02-19T01:17:55.852Z,4.45
2023-02-19T01:18:58.605Z,4.44
2023-02-19T01:20:05.838Z,4.45
2023-02-19T01:21:10.895Z,4.46
2023-02-19T01:22:13.606Z,4.55
2023-02-19T01:23:16.488Z,4.50
2023-02-19T01:24:19.735Z,4.47
2023-02-19T01:25:22.867Z,4.50
2023-02-19T01:26:27.732Z,4.57
2023-02-19T01:27:31.239Z,4.53
2023-02-19T01:28:35.597Z,4.54
2023-02-19T01:29:38.766Z,4.50
2023-02-19T01:30:42.358Z,4.50
2023-02-19T01:31:48.590Z,4.53
2023-02-19T01:32:50.977Z,4.42
2023-02-19T01:33:57.388Z,4.46
2023-02-19T01:35:00.782Z,4.58
2023-02-19T01:36:04.705Z,4.56
2023-02-19T01:37:10.288Z,4.60
2023-02-19T01:38:13.708Z,4.50
2023-02-19T01:39:17.517Z,4.51
2023-02-19T01:40:19.972Z,4.57
2023-02-19T01:41:25.473Z,4.61
2023-02-19T01:42:28.130Z,4.79
2023-02-19T01:43:36.643Z,4.80
2023-02-19T01:44:42.044Z,4.71
2023-02-19T01:45:46.374Z,4.63
2023-02-19T01:46:53.311Z,4.55
2023-02-19T01:48:07.598Z,4.59
2023-02-19T01:49:14.644Z,4.58
2023-02-19T01:50:18.265Z,4.60
2023-02-19T01:51:24.171Z,4.60
2023-02-19T01:52:28.361Z,4.65
2023-02-19T01:53:33.326Z,4.65
2023-02-19T01:54:38.982Z,4.77
2023-02-19T01:55:43.369Z,4.73
2023-02-19T01:56:47.991Z,4.63
2023-02-19T01:57:53.233Z,4.65
2023-02-19T01:58:59.903Z,4.83
2023-02-19T02:00:04.563Z,4.88
2023-02-19T02:01:12.268Z,4.91
2023-02-19T02:02:16.393Z,4.92
2023-02-19T02:03:23.199Z,4.79
2023-02-19T02:04:27.111Z,4.83
2023-02-19T02:05:31.765Z,4.85
2023-02-19T02:06:38.860Z,4.91
2023-02-19T02:08:01.869Z,4.82
2023-02-19T02:09:24.593Z,4.69
2023-02-19T02:10:30.013Z,4.53
2023-02-19T02:11:33.591Z,4.69
2023-02-19T02:12:36.991Z,4.56
2023-02-19T02:13:41.462Z,4.55
2023-02-19T02:14:45.708Z,4.64
2023-02-19T02:15:59.542Z,4.60
2023-02-19T02:17:06.837Z,4.53
2023-02-19T02:18:11.844Z,4.54
2023-02-19T02:19:16.717Z,4.58
2023-02-19T02:20:24.200Z,4.69
2023-02-19T02:21:40.976Z,4.72
2023-02-19T02:22:46.335Z,4.72
2023-02-19T02:24:06.237Z,4.66
2023-02-19T02:25:12.156Z,4.66
2023-02-19T02:26:23.852Z,4.56
2023-02-19T02:27:41.832Z,4.59
2023-02-19T02:29:03.918Z,4.67
2023-02-19T02:30:14.577Z,4.80
2023-02-19T02:31:22.921Z,4.82
2023-02-19T02:32:28.556Z,4.84
2023-02-19T02:33:34.660Z,4.77
2023-02-19T02:34:51.848Z,4.80
2023-02-19T02:35:57.348Z,4.78
2023-02-19T02:37:03.148Z,4.66
2023-02-19T02:38:08.484Z,4.70
2023-02-19T02:39:14.770Z,4.74
2023-02-19T02:40:18.046Z,4.86
2023-02-19T02:41:21.807Z,4.81
2023-02-19T02:42:28.386Z,4.80
2023-02-19T02:43:33.742Z,4.74
2023-02-19T02:44:40.007Z,4.73
2023-02-19T02:45:44.060Z,4.84
2023-02-19T02:46:52.431Z,4.84
2023-02-19T02:47:57.308Z,4.73
2023-02-19T02:49:02.686Z,4.73
2023-02-19T02:50:08.693Z,4.74
2023-02-19T02:51:13.351Z,4.68
2023-02-19T02:52:21.755Z,4.67
2023-02-19T02:53:47.408Z,4.68
2023-02-19T02:55:05.887Z,4.52
2023-02-19T02:56:10.919Z,4.57
2023-02-19T02:57:14.972Z,4.48
2023-02-19T02:58:24.772Z,4.46
2023-02-19T02:59:31.255Z,4.50
2023-02-19T03:00:39.469Z,4.60
2023-02-19T03:02:07.855Z,4.46
2023-02-19T03:03:11.326Z,4.43
2023-02-19T03:04:19.994Z,4.28
2023-02-19T03:05:44.838Z,4.29
2023-02-19T03:06:51.610Z,4.18
2023-02-19T03:08:00.337Z,4.26
2023-02-19T03:09:04.944Z,4.35
2023-02-19T03:10:10.136Z,4.31
2023-02-19T03:11:31.028Z,4.23
2023-02-19T03:12:53.941Z,4.17
2023-02-19T03:14:18.858Z,4.19
2023-02-19T03:15:42.010Z,4.21
2023-02-19T03:17:08.291Z,4.22
2023-02-19T03:18:31.010Z,4.13
2023-02-19T03:19:39.312Z,3.93
2023-02-19T03:20:44.389Z,3.74
2023-02-19T03:21:48.939Z,3.54
2023-02-19T03:22:54.428Z,3.57
2023-02-19T03:24:15.685Z,3.50
2023-02-19T03:25:39.760Z,3.47
2023-02-19T03:26:45.519Z,3.54
2023-02-19T03:27:51.315Z,3.60
2023-02-19T03:29:15.457Z,3.59
2023-02-19T03:30:22.985Z,3.62
2023-02-19T03:31:29.291Z,3.56
2023-02-19T03:32:37.453Z,3.68
2023-02-19T03:33:43.264Z,3.69
2023-02-19T03:34:51.147Z,3.42
2023-02-19T03:36:00.107Z,3.25
2023-02-19T03:37:07.427Z,3.26
2023-02-19T03:38:19.324Z,3.20
2023-02-19T03:39:23.964Z,3.40
2023-02-19T03:40:30.205Z,3.54
2023-02-19T03:41:51.976Z,3.56
2023-02-19T03:43:05.682Z,3.55
2023-02-19T03:44:27.635Z,3.65
2023-02-19T03:45:35.306Z,3.56
2023-02-19T03:46:42.974Z,3.60
2023-02-19T03:47:49.187Z,3.61
2023-02-19T03:49:07.740Z,3.60
2023-02-19T03:50:24.509Z,3.58
2023-02-19T03:51:30.436Z,3.47
2023-02-19T03:52:44.996Z,3.58
2023-02-19T03:53:56.124Z,3.46
2023-02-19T03:55:20.721Z,3.51
2023-02-19T03:56:35.208Z,3.64
2023-02-19T03:57:40.215Z,3.61
2023-02-19T03:58:48.965Z,3.58
2023-02-19T04:00:06.186Z,3.44
2023-02-19T04:01:16.370Z,3.48
2023-02-19T04:02:27.648Z,3.35
2023-02-19T04:03:42.506Z,3.35
2023-02-19T04:04:51.978Z,3.34
2023-02-19T04:06:07.262Z,3.28
2023-02-19T04:07:14.732Z,3.39
2023-02-19T04:08:19.915Z,3.38
2023-02-19T04:09:27.834Z,3.36
2023-02-19T04:10:32.362Z,3.47
2023-02-19T04:11:38.199Z,3.52
2023-02-19T04:12:44.417Z,3.59
2023-02-19T04:13:48.516Z,3.64
2023-02-19T04:14:54.954Z,3.71
2023-02-19T04:16:00.876Z,3.71
2023-02-19T04:17:05.497Z,3.77
2023-02-19T04:18:11.465Z,3.79
2023-02-19T04:19:17.210Z,3.81
2023-02-19T04:20:21.698Z,3.85
2023-02-19T04:21:24.650Z,3.95
2023-02-19T04:22:28.285Z,3.96
2023-02-19T04:23:32.494Z,4.04
2023-02-19T04:24:36.626Z,3.96
2023-02-19T04:25:41.663Z,3.96
2023-02-19T04:26:46.255Z,3.92
2023-02-19T04:27:49.639Z,3.93
2023-02-19T04:28:53.557Z,4.00
2023-02-19T04:29:56.027Z,3.94
2023-02-19T04:30:59.328Z,3.61
2023-02-19T04:32:03.242Z,3.71
2023-02-19T04:33:06.650Z,3.68
2023-02-19T04:34:09.940Z,3.65
2023-02-19T04:35:13.255Z,3.45
2023-02-19T04:36:21.547Z,3.56
2023-02-19T04:37:26.689Z,3.64
2023-02-19T04:38:32.815Z,3.53
2023-02-19T04:39:36.125Z,3.52
2023-02-19T04:40:39.356Z,3.57
2023-02-19T04:41:46.059Z,3.59
2023-02-19T04:42:54.208Z,3.50
2023-02-19T04:43:57.663Z,3.50
2023-02-19T04:45:03.499Z,3.40
2023-02-19T04:46:06.890Z,3.37
2023-02-19T04:47:09.635Z,3.48
2023-02-19T04:48:12.939Z,3.48
2023-02-19T04:49:16.452Z,3.41
2023-02-19T04:50:18.807Z,3.37
2023-02-19T04:51:22.488Z,3.43
2023-02-19T04:52:27.094Z,3.40
2023-02-19T04:53:30.890Z,3.33
2023-02-19T04:54:34.394Z,3.31
2023-02-19T04:55:39.152Z,3.20
2023-02-19T04:56:44.013Z,3.36
2023-02-19T04:57:47.417Z,3.44
2023-02-19T04:58:50.705Z,3.49
2023-02-19T04:59:53.997Z,3.42
2023-02-19T05:00:57.407Z,3.33
2023-02-19T05:02:01.005Z,3.40
2023-02-19T05:03:04.734Z,3.45
2023-02-19T05:04:08.170Z,3.23
2023-02-19T05:05:11.352Z,3.12
2023-02-19T05:06:15.379Z,3.08
2023-02-19T05:07:18.644Z,3.16
2023-02-19T05:08:21.827Z,3.23
2023-02-19T05:09:25.174Z,3.29
2023-02-19T05:10:30.468Z,3.35
2023-02-19T05:11:34.676Z,3.40
2023-02-19T05:12:37.938Z,3.48
2023-02-19T05:13:40.736Z,3.45
2023-02-19T05:14:43.076Z,3.37
2023-02-19T05:15:48.599Z,3.36
2023-02-19T05:16:52.074Z,3.32
2023-02-19T05:17:56.099Z,3.41
2023-02-19T05:18:59.082Z,3.58
2023-02-19T05:20:01.439Z,3.60
2023-02-19T05:21:06.403Z,3.40
2023-02-19T05:22:10.572Z,3.19
2023-02-19T05:23:14.562Z,3.28
2023-02-19T05:24:21.161Z,3.33
2023-02-19T05:25:23.895Z,3.39
2023-02-19T05:26:27.690Z,3.40
2023-02-19T05:27:30.497Z,3.41
2023-02-19T05:28:34.283Z,3.42
2023-02-19T05:29:36.633Z,3.34
2023-02-19T05:30:39.924Z,3.36
2023-02-19T05:31:43.507Z,3.36
2023-02-19T05:32:47.180Z,3.42
2023-02-19T05:33:51.594Z,3.35
2023-02-19T05:34:54.893Z,3.39
2023-02-19T05:35:59.336Z,3.40
2023-02-19T05:37:04.104Z,3.50
2023-02-19T05:38:08.750Z,3.62
2023-02-19T05:39:15.172Z,3.65
2023-02-19T05:40:18.580Z,3.82
2023-02-19T05:41:22.918Z,3.74
2023-02-19T05:42:28.203Z,3.70
2023-02-19T05:43:32.648Z,3.84
2023-02-19T05:44:36.049Z,3.77
2023-02-19T05:45:41.227Z,3.72
2023-02-19T05:46:45.033Z,3.78
2023-02-19T05:47:47.524Z,3.84
2023-02-19T05:48:52.052Z,3.81
2023-02-19T05:49:54.815Z,3.84
2023-02-19T05:51:00.209Z,3.96
2023-02-19T05:52:03.824Z,3.87
2023-02-19T05:53:07.327Z,3.97
2023-02-19T05:54:11.141Z,3.96
2023-02-19T05:55:14.024Z,4.08
2023-02-19T05:56:29.858Z,4.07
2023-02-19T05:57:33.252Z,4.17
2023-02-19T05:58:36.339Z,4.50
2023-02-19T05:59:42.444Z,4.60
2023-02-19T06:00:47.422Z,4.68
2023-02-19T06:01:51.550Z,4.66
2023-02-19T06:02:55.979Z,4.69
2023-02-19T06:03:58.386Z,4.54
2023-02-19T06:05:02.070Z,4.55
2023-02-19T06:06:05.679Z,4.52
2023-02-19T06:07:08.236Z,4.45
2023-02-19T06:08:16.231Z,4.57
2023-02-19T06:09:19.745Z,4.60
2023-02-19T06:10:24.218Z,4.42
2023-02-19T06:11:28.519Z,4.63
2023-02-19T06:12:31.523Z,4.93
2023-02-19T06:13:35.037Z,5.01
2023-02-19T06:14:38.720Z,4.73
2023-02-19T06:15:42.342Z,4.53
2023-02-19T06:16:47.517Z,4.62
2023-02-19T06:17:50.907Z,4.80
2023-02-19T06:18:54.320Z,5.14
2023-02-19T06:19:57.472Z,5.39
2023-02-19T06:21:08.272Z,6.00
2023-02-19T06:22:13.090Z,6.30
2023-02-19T06:23:16.377Z,6.08
2023-02-19T06:24:19.456Z,5.63
2023-02-19T06:25:23.077Z,5.50
2023-02-19T06:26:25.747Z,5.83
2023-02-19T06:27:28.417Z,5.93
2023-02-19T06:28:31.322Z,6.00
2023-02-19T06:29:38.505Z,5.83
2023-02-19T06:30:41.135Z,5.69
2023-02-19T06:31:48.711Z,5.77
2023-02-19T06:32:53.620Z,5.62
2023-02-19T06:33:56.978Z,5.74
2023-02-19T06:35:00.267Z,5.79
2023-02-19T06:36:04.305Z,5.66
2023-02-19T06:37:07.577Z,5.74
2023-02-19T06:38:10.993Z,5.71
2023-02-19T06:39:13.985Z,5.59
2023-02-19T06:40:21.227Z,5.46
2023-02-19T06:41:25.788Z,5.44
2023-02-19T06:42:31.790Z,5.23
2023-02-19T06:43:35.514Z,5.26
2023-02-19T06:44:40.024Z,5.56
2023-02-19T06:45:44.612Z,5.59
2023-02-19T06:46:52.746Z,5.76
2023-02-19T06:47:56.244Z,5.85
2023-02-19T06:49:00.041Z,5.92
2023-02-19T06:50:04.899Z,6.16
2023-02-19T06:51:12.378Z,6.42
2023-02-19T06:52:15.913Z,6.86
2023-02-19T06:53:19.478Z,7.10
2023-02-19T06:54:22.995Z,7.31
2023-02-19T06:55:26.395Z,7.34
2023-02-19T06:56:34.289Z,7.17
2023-02-19T06:57:37.874Z,7.05
2023-02-19T06:58:41.470Z,7.06
2023-02-19T06:59:47.098Z,6.94
2023-02-19T07:00:50.493Z,6.73
2023-02-19T07:01:55.129Z,6.60
2023-02-19T07:02:58.264Z,6.95
2023-02-19T07:04:02.193Z,7.17
2023-02-19T07:05:06.144Z,7.03
2023-02-19T07:06:11.155Z,6.91
2023-02-19T07:07:13.818Z,6.89
2023-02-19T07:08:19.197Z,6.70
2023-02-19T07:09:24.452Z,6.90
2023-02-19T07:10:28.014Z,7.22
2023-02-19T07:11:33.735Z,7.52
2023-02-19T07:12:37.092Z,7.55
2023-02-19T07:13:41.773Z,8.10
2023-02-19T07:14:46.087Z,8.41
2023-02-19T07:15:51.767Z,8.57
2023-02-19T07:16:55.184Z,8.68
2023-02-19T07:18:00.359Z,8.90
2023-02-19T07:19:03.861Z,9.23
2023-02-19T07:20:10.192Z,8.88
2023-02-19T07:21:17.545Z,8.51
2023-02-19T07:22:20.918Z,8.62
2023-02-19T07:23:24.153Z,9.07
2023-02-19T07:24:27.542Z,9.07
2023-02-19T07:25:31.990Z,9.20
2023-02-19T07:26:35.614Z,10.31
2023-02-19T07:27:38.893Z,11.24
2023-02-19T07:28:42.416Z,13.16
2023-02-19T07:29:45.807Z,14.95
2023-02-19T07:30:48.929Z,16.01
2023-02-19T07:31:54.453Z,16.97
2023-02-19T07:32:58.097Z,17.67
2023-02-19T07:34:01.083Z,17.90
2023-02-19T07:35:04.375Z,18.12
2023-02-19T07:36:08.243Z,18.70
2023-02-19T07:37:12.475Z,17.90
2023-02-19T07:38:17.478Z,18.79
2023-02-19T07:39:20.586Z,19.47
2023-02-19T07:40:35.019Z,19.40
2023-02-19T07:41:37.225Z,18.87
2023-02-19T07:42:44.178Z,19.42
2023-02-19T07:43:48.389Z,19.18
2023-02-19T07:44:55.909Z,19.78
2023-02-19T07:45:58.472Z,20.15
2023-02-19T07:47:01.800Z,20.67
2023-02-19T07:48:04.299Z,20.21
2023-02-19T07:49:07.709Z,20.22
2023-02-19T07:50:13.966Z,20.34
2023-02-19T07:51:19.774Z,20.07
2023-02-19T07:52:22.384Z,20.19
2023-02-19T07:53:27.888Z,19.65
2023-02-19T07:54:34.289Z,19.07
2023-02-19T07:55:37.553Z,18.73
2023-02-19T07:56:40.791Z,18.55
2023-02-19T07:57:44.515Z,18.38
2023-02-19T07:58:51.266Z,18.89
2023-02-19T07:59:55.385Z,19.78
2023-02-19T08:00:59.423Z,20.78
2023-02-19T08:02:24.530Z,21.76
2023-02-19T08:03:29.400Z,21.96
2023-02-19T08:04:32.688Z,20.69
2023-02-19T08:05:39.864Z,21.04
2023-02-19T08:06:43.378Z,21.59
2023-02-19T08:07:49.517Z,22.24
2023-02-19T08:08:51.422Z,22.85
2023-02-19T08:09:57.931Z,23.05
2023-02-19T08:11:22.261Z,21.88
2023-02-19T08:12:45.273Z,21.27
2023-02-19T08:13:49.473Z,22.14
2023-02-19T08:14:51.876Z,22.19
2023-02-19T08:16:07.514Z,19.77
2023-02-19T08:17:03.520Z,20.22
2023-02-19T08:18:08.977Z,17.63
2023-02-19T08:19:12.379Z,16.81
2023-02-19T08:20:15.913Z,17.71
2023-02-19T08:21:19.797Z,16.39
2023-02-19T08:22:24.425Z,15.62
2023-02-19T08:23:28.800Z,14.28
2023-02-19T08:24:35.204Z,13.66
2023-02-19T08:25:39.332Z,12.35
2023-02-19T08:26:42.965Z,11.17
2023-02-19T08:27:46.459Z,10.24
2023-02-19T08:28:52.097Z,9.92
2023-02-19T08:29:55.568Z,9.45
2023-02-19T08:31:00.808Z,8.97
2023-02-19T08:32:04.397Z,8.54
2023-02-19T08:33:08.785Z,8.43
2023-02-19T08:34:11.398Z,8.64
2023-02-19T08:35:14.873Z,8.90
2023-02-19T08:36:19.959Z,8.98
2023-02-19T08:37:26.343Z,8.89
2023-02-19T08:38:29.663Z,8.56
2023-02-19T08:39:33.201Z,11.02
2023-02-19T08:40:37.620Z,13.35
2023-02-19T08:41:41.130Z,14.23
2023-02-19T08:43:55.338Z,15.96
2023-02-19T08:44:58.697Z,16.86
2023-02-19T08:46:01.516Z,17.13
2023-02-19T08:47:04.376Z,16.71
2023-02-19T08:48:07.361Z,16.85
2023-02-19T08:49:10.550Z,16.31
2023-02-19T08:50:14.067Z,16.77
2023-02-19T08:51:16.324Z,16.56
2023-02-19T08:52:19.926Z,16.38
2023-02-19T08:53:25.309Z,15.62
2023-02-19T08:54:28.598Z,15.62
2023-02-19T08:55:31.902Z,14.89
2023-02-19T08:56:34.359Z,14.52
2023-02-19T08:57:41.008Z,14.20
2023-02-19T08:58:44.509Z,14.40
2023-02-19T08:59:47.913Z,14.44
2023-02-19T09:00:50.785Z,14.02
2023-02-19T09:01:54.393Z,13.68
2023-02-19T09:02:58.381Z,12.86
2023-02-19T09:04:01.564Z,12.76
2023-02-19T09:05:05.212Z,12.97
2023-02-19T09:06:12.587Z,13.17
2023-02-19T09:07:19.025Z,12.00
2023-02-19T09:08:22.420Z,12.08
2023-02-19T09:09:24.867Z,11.74
2023-02-19T09:10:28.104Z,11.18
2023-02-19T09:11:31.161Z,10.77
2023-02-19T09:12:36.468Z,10.84
2023-02-19T09:13:40.594Z,11.11
2023-02-19T09:14:43.973Z,10.23
2023-02-19T09:15:47.396Z,10.40
2023-02-19T09:16:50.877Z,10.02
2023-02-19T09:17:55.323Z,9.62
2023-02-19T09:18:58.506Z,8.88
2023-02-19T09:20:02.050Z,8.43
2023-02-19T09:21:06.672Z,8.63
2023-02-19T09:22:09.799Z,8.17
2023-02-19T09:23:13.377Z,8.42
2023-02-19T09:24:16.026Z,8.24
2023-02-19T09:25:18.387Z,8.17
2023-02-19T09:26:21.931Z,7.92
2023-02-19T09:27:26.367Z,7.61
2023-02-19T09:28:29.853Z,7.48
2023-02-19T09:29:33.977Z,7.88
2023-02-19T09:30:39.056Z,7.99
2023-02-19T09:31:44.770Z,7.84
2023-02-19T09:32:48.576Z,7.96
2023-02-19T09:33:51.345Z,7.92
2023-02-19T09:34:54.644Z,8.17
2023-02-19T09:35:59.708Z,7.99
2023-02-19T09:37:02.026Z,7.66
2023-02-19T09:38:06.318Z,7.99
2023-02-19T09:39:13.999Z,8.24
2023-02-19T09:40:18.942Z,8.26
2023-02-19T09:41:42.274Z,8.35
2023-02-19T09:42:45.450Z,8.04
2023-02-19T09:43:49.762Z,8.37
2023-02-19T09:44:56.691Z,8.64
2023-02-19T09:46:15.994Z,8.40
2023-02-19T09:47:25.507Z,8.27
2023-02-19T09:48:30.465Z,8.46
2023-02-19T09:49:35.062Z,8.44
2023-02-19T09:50:41.807Z,8.41
2023-02-19T09:51:47.174Z,8.42
2023-02-19T09:52:51.608Z,7.96
2023-02-19T09:53:55.738Z,7.42
2023-02-19T09:55:02.801Z,7.24
2023-02-19T09:56:06.624Z,7.22
2023-02-19T09:57:13.053Z,7.18
2023-02-19T09:58:21.675Z,7.27
2023-02-19T09:59:33.041Z,7.49
2023-02-19T10:00:35.582Z,7.33
2023-02-19T10:01:40.516Z,7.01
2023-02-19T10:02:42.890Z,7.06
2023-02-19T10:03:47.870Z,7.36
2023-02-19T10:04:52.016Z,7.08
2023-02-19T10:05:57.279Z,7.01
2023-02-19T10:07:02.303Z,7.36
2023-02-19T10:08:07.556Z,7.31
2023-02-19T10:09:20.838Z,7.84
2023-02-19T10:10:30.618Z,8.20
2023-02-19T10:11:34.069Z,8.01
2023-02-19T10:12:38.410Z,7.89
2023-02-19T10:13:47.183Z,7.83
2023-02-19T10:14:51.953Z,8.04
2023-02-19T10:15:56.101Z,7.76
2023-02-19T10:17:00.155Z,7.60
2023-02-19T10:18:04.764Z,7.63
2023-02-19T10:19:13.073Z,7.55
2023-02-19T10:20:17.978Z,8.00
2023-02-19T10:21:23.427Z,8.14
2023-02-19T10:22:27.299Z,8.00
2023-02-19T10:23:31.161Z,7.86
2023-02-19T10:24:33.733Z,7.92
2023-02-19T10:25:39.730Z,8.25
2023-02-19T10:26:43.255Z,8.00
2023-02-19T10:27:47.512Z,7.79
2023-02-19T10:28:50.891Z,8.15
2023-02-19T10:29:56.093Z,8.27
2023-02-19T10:31:05.455Z,8.22
2023-02-19T10:32:17.492Z,8.24
2023-02-19T10:33:21.639Z,8.36
2023-02-19T10:34:24.730Z,8.42
2023-02-19T10:35:30.478Z,8.38
2023-02-19T10:36:35.802Z,8.30
2023-02-19T10:37:43.709Z,8.07
2023-02-19T10:38:48.329Z,8.29
2023-02-19T10:39:53.512Z,8.28
2023-02-19T10:41:04.586Z,7.98
2023-02-19T10:42:08.762Z,8.03
2023-02-19T10:43:14.775Z,8.10
2023-02-19T10:44:20.674Z,8.19
2023-02-19T10:45:26.341Z,8.27
2023-02-19T10:46:31.625Z,8.34
2023-02-19T10:47:35.465Z,8.53
2023-02-19T10:48:42.746Z,8.62
2023-02-19T10:49:48.301Z,8.63
2023-02-19T10:50:53.229Z,9.00
2023-02-19T10:51:58.161Z,9.03
2023-02-19T10:53:02.467Z,8.51
2023-02-19T10:54:11.721Z,8.68
2023-02-19T10:55:22.134Z,8.61
2023-02-19T10:56:27.000Z,8.59
2023-02-19T10:57:34.424Z,8.67
2023-02-19T10:58:38.508Z,8.59
2023-02-19T10:59:58.128Z,8.62
2023-02-19T11:01:14.958Z,8.41
2023-02-19T11:02:20.880Z,8.46
2023-02-19T11:03:24.454Z,8.55
2023-02-19T11:04:33.074Z,8.54
2023-02-19T11:05:40.552Z,8.73
2023-02-19T11:06:46.636Z,8.86
2023-02-19T11:07:55.846Z,8.54
2023-02-19T11:09:00.773Z,8.64
2023-02-19T11:10:04.018Z,8.34
2023-02-19T11:11:07.420Z,8.24
2023-02-19T11:12:10.808Z,8.28
2023-02-19T11:13:15.754Z,8.22
2023-02-19T11:14:18.721Z,8.22
2023-02-19T11:15:25.791Z,8.35
2023-02-19T11:16:45.519Z,8.57
2023-02-19T11:17:59.333Z,8.60
2023-02-19T11:19:02.897Z,8.41
2023-02-19T11:20:07.090Z,8.31
2023-02-19T11:21:13.144Z,8.27
2023-02-19T11:22:36.224Z,8.41
2023-02-19T11:23:41.355Z,8.48
2023-02-19T11:24:46.072Z,8.34
2023-02-19T11:25:53.277Z,8.14
2023-02-19T11:26:57.047Z,7.96
2023-02-19T11:28:06.593Z,8.01
2023-02-19T11:29:13.788Z,8.01
2023-02-19T11:30:26.046Z,8.18
2023-02-19T11:31:35.701Z,8.07
2023-02-19T11:32:40.626Z,8.08
2023-02-19T11:33:44.435Z,8.08
2023-02-19T11:34:47.488Z,7.98
2023-02-19T11:36:01.424Z,7.84
2023-02-19T11:37:18.226Z,7.54
2023-02-19T11:38:21.670Z,7.16
2023-02-19T11:39:27.895Z,7.44
2023-02-19T11:40:36.838Z,7.49
2023-02-19T11:41:47.795Z,7.56
2023-02-19T11:42:57.488Z,7.56
2023-02-19T11:44:05.539Z,7.76
2023-02-19T11:45:11.214Z,7.94
2023-02-19T11:46:25.313Z,7.86
2023-02-19T11:47:45.325Z,7.77
2023-02-19T11:49:06.098Z,7.94
2023-02-19T11:50:10.588Z,8.08
2023-02-19T11:51:19.634Z,8.43
2023-02-19T11:52:33.929Z,8.49
2023-02-19T11:53:41.058Z,8.44
2023-02-19T11:54:52.563Z,8.30
2023-02-19T11:55:59.275Z,8.39
2023-02-19T11:57:05.407Z,8.43
2023-02-19T11:58:10.620Z,8.50
2023-02-19T11:59:24.589Z,8.31
2023-02-19T12:00:30.198Z,8.37
2023-02-19T12:01:50.154Z,8.14
2023-02-19T12:02:59.136Z,8.10
2023-02-19T12:04:13.025Z,8.12
2023-02-19T12:05:20.323Z,8.03
2023-02-19T12:06:29.029Z,8.01
2023-02-19T12:07:45.203Z,7.89
2023-02-19T12:08:49.358Z,7.72
2023-02-19T12:10:00.761Z,7.85
2023-02-19T12:11:05.670Z,7.85
2023-02-19T12:12:24.541Z,7.51
2023-02-19T12:13:35.519Z,7.54
2023-02-19T12:14:41.731Z,7.64
2023-02-19T12:15:46.100Z,7.46
2023-02-19T12:16:53.255Z,7.39
2023-02-19T12:18:04.646Z,7.58
2023-02-19T12:19:23.703Z,7.63
2023-02-19T12:20:36.826Z,7.34
2023-02-19T12:21:45.247Z,7.43
2023-02-19T12:23:07.149Z,7.40
2023-02-19T12:24:30.084Z,7.35
2023-02-19T12:25:49.922Z,7.18
2023-02-19T12:27:04.851Z,7.27
2023-02-19T12:28:12.232Z,7.11
2023-02-19T12:29:35.159Z,7.30
2023-02-19T12:30:51.385Z,7.55
2023-02-19T12:31:56.594Z,7.40
2023-02-19T12:33:04.278Z,7.34
2023-02-19T12:34:21.193Z,7.11
2023-02-19T12:35:32.294Z,7.19
2023-02-19T12:36:46.002Z,7.12
2023-02-19T12:38:01.507Z,7.22
2023-02-19T12:39:06.435Z,7.17
2023-02-19T12:40:11.421Z,7.01
2023-02-19T12:41:25.462Z,7.11
2023-02-19T12:42:34.481Z,7.08
2023-02-19T12:43:39.475Z,6.97
2023-02-19T12:44:44.418Z,7.07
2023-02-19T12:45:48.964Z,7.18
2023-02-19T12:46:56.118Z,7.37
2023-02-19T12:48:03.739Z,7.37
2023-02-19T12:49:18.032Z,7.37
2023-02-19T12:50:24.361Z,7.14
2023-02-19T12:51:29.504Z,7.09
2023-02-19T12:52:37.503Z,7.14
2023-02-19T12:53:42.509Z,7.20
2023-02-19T12:54:47.590Z,7.25
2023-02-19T12:55:53.020Z,7.09
2023-02-19T12:56:58.946Z,7.14
2023-02-19T12:58:05.057Z,7.08
2023-02-19T12:59:12.496Z,7.14
2023-02-19T13:00:34.376Z,7.25
2023-02-19T13:01:44.527Z,7.39
2023-02-19T13:02:52.964Z,7.51
2023-02-19T13:04:07.720Z,7.62
2023-02-19T13:05:15.766Z,7.20
2023-02-19T13:07:40.709Z,7.26
2023-02-19T13:09:03.452Z,7.11
2023-02-19T13:10:00.739Z,6.92
2023-02-19T13:11:08.108Z,6.78
2023-02-19T13:12:21.672Z,6.74
2023-02-19T13:13:28.359Z,6.76
2023-02-19T13:14:33.596Z,6.87
2023-02-19T13:15:41.722Z,6.86
2023-02-19T13:16:47.128Z,6.78
2023-02-19T13:18:01.160Z,6.78
2023-02-19T13:19:04.106Z,6.90
2023-02-19T13:20:10.383Z,6.70
2023-02-19T13:21:24.410Z,6.81
2023-02-19T13:22:48.268Z,6.64
2023-02-19T13:24:01.569Z,6.58
2023-02-19T13:25:06.519Z,6.53
2023-02-19T13:26:30.154Z,6.51
2023-02-19T13:27:43.857Z,6.50
2023-02-19T13:28:47.979Z,6.63
2023-02-19T13:29:53.482Z,6.56
2023-02-19T13:31:13.892Z,6.67
2023-02-19T13:32:27.018Z,6.56
2023-02-19T13:33:35.243Z,6.67
2023-02-19T13:34:56.064Z,6.76
2023-02-19T13:36:02.066Z,6.79
2023-02-19T13:37:06.965Z,6.66
2023-02-19T13:38:11.806Z,6.43
2023-02-19T13:40:20.781Z,6.32
2023-02-19T13:41:31.825Z,6.33
2023-02-19T13:42:35.871Z,6.45
2023-02-19T13:43:43.015Z,6.35
2023-02-19T13:44:49.232Z,6.41
2023-02-19T13:45:58.958Z,6.35
2023-02-19T13:47:05.574Z,6.42
2023-02-19T13:48:26.590Z,6.44
2023-02-19T13:49:31.679Z,6.35
2023-02-19T13:50:35.585Z,6.50
2023-02-19T13:51:38.974Z,6.41
2023-02-19T13:52:43.313Z,6.39
2023-02-19T13:53:50.401Z,6.35
2023-02-19T13:54:54.953Z,6.38
2023-02-19T13:55:57.287Z,6.28
2023-02-19T13:57:20.523Z,6.33
2023-02-19T13:58:35.447Z,6.29
2023-02-19T13:59:40.947Z,6.22
2023-02-19T14:00:51.845Z,6.14
2023-02-19T14:02:01.212Z,6.21
2023-02-19T14:03:23.804Z,6.19
2023-02-19T14:04:45.839Z,6.26
2023-02-19T14:05:59.019Z,6.30
2023-02-19T14:07:08.268Z,6.17
2023-02-19T14:08:12.561Z,6.20
2023-02-19T14:09:33.439Z,6.04
2023-02-19T14:10:57.236Z,6.01
2023-02-19T14:12:04.892Z,5.90
2023-02-19T14:13:09.316Z,5.86
2023-02-19T14:14:25.920Z,6.03
2023-02-19T14:15:37.512Z,6.06
2023-02-19T14:16:41.797Z,5.98
2023-02-19T14:17:47.599Z,5.97
2023-02-19T14:18:55.498Z,6.16
2023-02-19T14:20:00.338Z,5.99
2023-02-19T14:21:07.825Z,6.08
2023-02-19T14:22:30.223Z,6.05
2023-02-19T14:23:33.557Z,5.99
2023-02-19T14:24:37.233Z,5.89
2023-02-19T14:25:52.036Z,5.96
2023-02-19T14:26:57.206Z,5.92
2023-02-19T14:28:07.288Z,5.94
2023-02-19T14:29:12.599Z,5.93
2023-02-19T14:30:15.872Z,5.99
2023-02-19T14:31:22.326Z,6.01
2023-02-19T14:32:27.070Z,5.86
2023-02-19T14:33:34.633Z,5.82
2023-02-19T14:34:37.731Z,5.88
2023-02-19T14:35:44.538Z,5.81
2023-02-19T14:36:50.880Z,5.79
2023-02-19T14:37:58.163Z,5.82
2023-02-19T14:39:06.040Z,5.66
2023-02-19T14:40:11.422Z,5.52
2023-02-19T14:41:16.391Z,5.72
2023-02-19T14:42:28.464Z,5.75
2023-02-19T14:43:33.561Z,5.69
2023-02-19T14:44:43.734Z,5.78
2023-02-19T14:45:51.732Z,5.79
2023-02-19T14:47:10.454Z,5.83
2023-02-19T14:48:16.670Z,5.73